Time;durP1;ratioP1;P1;durP2;ratioP2;P2;SDS_P1;SDS_P2;PMS_P1;PMS_P2;Temp;Humidity;BMP_temperature;BMP_pressure;BME280_temperature;BME280_humidity;BME280_pressure;Samples;Min_cycle;Max_cycle;Signal;HPM_P1;HPM_P2
2024/03/25 00:01:59;;;;;;;0.88;0.40;;;5.70;99.90;;;;;;5138876;27;20415;-60
2024/03/25 00:04:26;;;;;;;0.90;0.40;;;5.70;99.90;;;;;;5138561;27;20501;-59
2024/03/25 00:06:54;;;;;;;1.40;0.40;;;5.70;99.90;;;;;;5138814;27;20495;-59
2024/03/25 00:09:21;;;;;;;1.30;0.30;;;5.70;99.90;;;;;;5130840;27;20424;-59
2024/03/25 00:11:47;;;;;;;0.87;0.40;;;5.70;99.90;;;;;;5118010;28;20794;-59
2024/03/25 00:14:15;;;;;;;0.70;0.40;;;5.60;99.90;;;;;;5119120;27;20412;-59
2024/03/25 00:16:41;;;;;;;0.70;0.40;;;5.70;99.90;;;;;;5138410;27;20778;-59
2024/03/25 00:19:08;;;;;;;0.70;0.40;;;5.70;99.90;;;;;;5138911;27;20422;-60
2024/03/25 00:21:34;;;;;;;0.90;0.30;;;5.60;99.90;;;;;;5137972;27;20434;-59
2024/03/25 00:24:02;;;;;;;1.50;0.40;;;5.70;99.90;;;;;;5138393;27;20754;-59
2024/03/25 00:26:28;;;;;;;0.70;0.40;;;5.60;99.90;;;;;;5137892;27;20438;-59
2024/03/25 00:28:55;;;;;;;1.20;0.40;;;5.60;99.90;;;;;;5138501;27;20407;-59
2024/03/25 00:31:21;;;;;;;0.70;0.30;;;5.50;99.90;;;;;;5138571;27;20819;-59
2024/03/25 00:33:48;;;;;;;1.80;0.30;;;5.60;99.90;;;;;;5138079;27;20422;-59
2024/03/25 00:36:14;;;;;;;1.00;0.30;;;5.60;99.90;;;;;;5137574;27;20423;-59
2024/03/25 00:38:41;;;;;;;1.60;0.47;;;5.50;99.90;;;;;;5138297;27;20417;-59
2024/03/25 00:41:09;;;;;;;0.63;0.40;;;5.50;99.90;;;;;;5126476;27;20837;-60
2024/03/25 00:43:36;;;;;;;1.10;0.40;;;5.40;99.90;;;;;;5107701;28;20820;-59
2024/03/25 00:46:02;;;;;;;1.75;0.40;;;5.40;99.90;;;;;;5112996;28;20424;-59
2024/03/25 00:48:29;;;;;;;0.80;0.40;;;5.40;99.90;;;;;;5116932;28;20442;-60
2024/03/25 00:50:55;;;;;;;1.25;0.40;;;5.40;99.90;;;;;;5117266;28;20435;-59
2024/03/25 00:53:22;;;;;;;2.38;0.50;;;5.30;99.90;;;;;;5117243;28;20883;-59
2024/03/25 00:55:49;;;;;;;1.33;0.40;;;5.40;99.90;;;;;;5117535;28;20440;-59
2024/03/25 00:58:17;;;;;;;0.90;0.40;;;5.40;99.90;;;;;;5117106;28;20423;-59
2024/03/25 01:00:44;;;;;;;0.80;0.40;;;5.30;99.90;;;;;;5117370;28;20455;-58
2024/03/25 01:03:10;;;;;;;0.70;0.30;;;5.40;99.90;;;;;;5117146;28;20802;-58
2024/03/25 01:05:37;;;;;;;1.60;0.40;;;5.30;99.90;;;;;;5117069;28;20466;-58
2024/03/25 01:08:03;;;;;;;0.80;0.40;;;5.30;99.90;;;;;;5117082;28;20404;-58
2024/03/25 01:10:31;;;;;;;0.70;0.35;;;5.30;99.90;;;;;;5134528;27;20422;-58
2024/03/25 01:12:57;;;;;;;1.35;0.50;;;5.30;99.90;;;;;;5137758;28;20483;-58
2024/03/25 01:15:25;;;;;;;0.70;0.50;;;5.30;99.90;;;;;;5136075;28;20424;-58
2024/03/25 01:17:51;;;;;;;1.10;0.40;;;5.30;99.90;;;;;;5136538;27;20423;-58
2024/03/25 01:20:19;;;;;;;1.00;0.30;;;5.30;99.90;;;;;;5137231;27;20505;-58
2024/03/25 01:22:44;;;;;;;1.60;0.35;;;5.30;99.90;;;;;;5136234;28;20418;-58
2024/03/25 01:25:11;;;;;;;1.63;0.50;;;5.20;99.90;;;;;;5134544;27;20504;-58
2024/03/25 01:27:37;;;;;;;0.70;0.40;;;5.10;99.90;;;;;;5134668;27;20485;-58
2024/03/25 01:30:05;;;;;;;0.65;0.30;;;5.10;99.90;;;;;;5134668;28;20422;-58
2024/03/25 01:32:33;;;;;;;0.68;0.40;;;5.00;99.90;;;;;;5134392;28;20422;-58
2024/03/25 01:35:00;;;;;;;1.40;0.50;;;5.00;99.90;;;;;;5134776;27;20419;-58
2024/03/25 01:37:26;;;;;;;1.70;0.40;;;5.00;99.90;;;;;;5135894;28;20426;-59
2024/03/25 01:39:53;;;;;;;0.70;0.40;;;4.90;99.90;;;;;;5136749;28;20437;-59
2024/03/25 01:42:19;;;;;;;1.40;0.50;;;5.00;99.90;;;;;;5136523;28;20418;-59
2024/03/25 01:44:46;;;;;;;1.40;0.50;;;4.90;99.90;;;;;;5136579;28;20451;-59
2024/03/25 01:47:13;;;;;;;0.70;0.40;;;5.00;99.90;;;;;;5136577;27;20471;-59
2024/03/25 01:49:41;;;;;;;1.00;0.40;;;5.00;99.90;;;;;;5137097;27;20418;-59
2024/03/25 01:52:07;;;;;;;0.70;0.50;;;5.00;99.90;;;;;;5135950;28;20727;-59
2024/03/25 01:54:34;;;;;;;1.20;0.50;;;5.00;99.90;;;;;;5135278;27;20800;-59
2024/03/25 01:57:01;;;;;;;1.20;0.50;;;5.00;99.90;;;;;;5136703;28;20422;-59
2024/03/25 01:59:29;;;;;;;1.77;0.40;;;5.10;99.90;;;;;;5136426;28;20411;-58
2024/03/25 02:01:56;;;;;;;1.40;0.40;;;5.00;99.90;;;;;;5138675;27;20430;-58
2024/03/25 02:04:23;;;;;;;0.80;0.50;;;5.00;99.90;;;;;;5140748;27;20552;-59
2024/03/25 02:06:51;;;;;;;1.50;0.40;;;5.10;99.90;;;;;;5140109;27;20471;-58
2024/03/25 02:09:19;;;;;;;1.00;0.50;;;5.00;99.90;;;;;;5140561;27;20433;-58
2024/03/25 02:11:46;;;;;;;1.95;0.40;;;5.00;99.90;;;;;;5140321;27;20421;-58
2024/03/25 02:14:13;;;;;;;1.00;0.40;;;4.90;99.90;;;;;;5140734;27;20741;-59
2024/03/25 02:16:39;;;;;;;1.10;0.50;;;5.00;99.90;;;;;;5140180;27;20513;-59
2024/03/25 02:19:07;;;;;;;1.40;0.40;;;5.00;99.90;;;;;;5140247;27;20883;-59
2024/03/25 02:21:33;;;;;;;0.70;0.40;;;5.10;99.90;;;;;;5139845;27;20431;-59
2024/03/25 02:24:04;;;;;;;1.40;0.40;;;5.10;99.90;;;;;;5140816;27;20672;-59
2024/03/25 02:26:31;;;;;;;1.35;0.40;;;5.10;99.90;;;;;;5139662;27;20429;-56
2024/03/25 02:28:58;;;;;;;1.50;0.50;;;5.10;99.90;;;;;;5139716;27;20500;-57
2024/03/25 02:31:24;;;;;;;0.60;0.40;;;5.10;99.90;;;;;;5139849;27;20484;-59
2024/03/25 02:33:51;;;;;;;0.90;0.50;;;5.10;99.90;;;;;;5140257;27;20712;-59
2024/03/25 02:36:17;;;;;;;1.45;0.45;;;5.10;99.90;;;;;;5139482;27;20487;-58
2024/03/25 02:38:44;;;;;;;1.10;0.50;;;5.10;99.90;;;;;;5139724;27;20421;-58
2024/03/25 02:41:11;;;;;;;1.70;0.50;;;5.10;99.90;;;;;;5139608;27;20427;-58
2024/03/25 02:43:39;;;;;;;1.70;0.50;;;5.20;99.90;;;;;;5139806;27;20452;-58
2024/03/25 02:46:05;;;;;;;1.43;0.40;;;5.20;99.90;;;;;;5139606;27;20457;-58
2024/03/25 02:48:32;;;;;;;0.70;0.40;;;5.20;99.90;;;;;;5140104;27;20494;-59
2024/03/25 02:50:58;;;;;;;1.10;0.47;;;5.20;99.90;;;;;;5139768;27;20784;-58
2024/03/25 02:53:25;;;;;;;0.80;0.40;;;5.20;99.90;;;;;;5139774;27;20841;-58
2024/03/25 02:55:51;;;;;;;0.80;0.50;;;5.20;99.90;;;;;;5139471;27;20493;-59
2024/03/25 02:58:18;;;;;;;1.52;0.50;;;5.20;99.90;;;;;;5139317;27;20498;-59
2024/03/25 03:00:46;;;;;;;1.10;0.40;;;5.20;99.90;;;;;;5138804;27;20849;-58
2024/03/25 03:03:13;;;;;;;0.82;0.40;;;5.20;99.90;;;;;;5128498;27;20489;-59
2024/03/25 03:05:39;;;;;;;1.00;0.40;;;5.20;99.90;;;;;;5126243;27;20414;-59
2024/03/25 03:08:06;;;;;;;1.10;0.50;;;5.30;99.90;;;;;;5139590;27;20479;-59
2024/03/25 03:10:32;;;;;;;1.90;0.40;;;5.30;99.90;;;;;;5138052;27;20418;-58
2024/03/25 03:12:59;;;;;;;1.10;0.50;;;5.40;99.90;;;;;;5138344;27;20417;-58
2024/03/25 03:15:25;;;;;;;1.00;0.40;;;5.40;99.90;;;;;;5138359;27;20479;-57
2024/03/25 03:17:53;;;;;;;1.70;0.50;;;5.50;99.90;;;;;;5138750;27;20738;-57
2024/03/25 03:20:19;;;;;;;1.13;0.50;;;5.50;99.90;;;;;;5138246;27;20418;-58
2024/03/25 03:22:47;;;;;;;1.17;0.40;;;5.50;99.90;;;;;;5138568;27;20491;-58
2024/03/25 03:25:13;;;;;;;0.80;0.40;;;5.50;99.90;;;;;;5138538;27;20430;-58
2024/03/25 03:27:40;;;;;;;2.10;0.40;;;5.40;99.90;;;;;;5138788;27;20451;-58
2024/03/25 03:30:06;;;;;;;2.00;0.50;;;5.40;99.90;;;;;;5138500;27;20442;-56
2024/03/25 03:32:33;;;;;;;0.90;0.50;;;5.40;99.90;;;;;;5138151;27;20692;-58
2024/03/25 03:35:01;;;;;;;1.70;0.40;;;5.30;99.90;;;;;;5138499;27;20742;-58
2024/03/25 03:37:28;;;;;;;0.60;0.40;;;5.30;99.90;;;;;;5138730;27;20426;-58
2024/03/25 03:39:54;;;;;;;0.85;0.50;;;5.30;99.90;;;;;;5139152;27;20426;-58
2024/03/25 03:42:21;;;;;;;2.53;0.50;;;5.30;99.90;;;;;;5138590;27;20480;-55
2024/03/25 03:44:47;;;;;;;1.40;0.40;;;5.30;99.90;;;;;;5137867;27;20734;-57
2024/03/25 03:47:14;;;;;;;0.80;0.43;;;5.20;99.90;;;;;;5139014;27;20471;-57
2024/03/25 03:49:40;;;;;;;0.80;0.50;;;5.20;99.90;;;;;;5138866;27;20483;-57
2024/03/25 03:52:08;;;;;;;1.38;0.40;;;5.20;99.90;;;;;;5138616;27;20428;-58
2024/03/25 03:54:34;;;;;;;1.08;0.50;;;5.20;99.90;;;;;;5137815;27;20479;-56
2024/03/25 03:57:01;;;;;;;1.40;0.40;;;5.20;99.90;;;;;;5137987;27;20417;-57
2024/03/25 03:59:27;;;;;;;0.90;0.60;;;5.20;99.90;;;;;;5137581;27;20674;-57
2024/03/25 04:01:54;;;;;;;1.00;0.50;;;5.20;99.90;;;;;;5138471;27;20487;-57
2024/03/25 04:04:20;;;;;;;0.93;0.40;;;5.20;99.90;;;;;;5138444;27;20908;-56
2024/03/25 04:06:47;;;;;;;1.23;0.50;;;5.20;99.90;;;;;;5138422;27;20425;-56
2024/03/25 04:09:15;;;;;;;0.77;0.40;;;5.20;99.90;;;;;;5136982;27;20422;-58
2024/03/25 04:11:41;;;;;;;2.00;0.50;;;5.20;99.90;;;;;;5138063;27;20746;-58
2024/03/25 04:14:07;;;;;;;0.90;0.50;;;5.10;99.90;;;;;;5137544;27;20410;-56
2024/03/25 04:16:34;;;;;;;0.95;0.50;;;5.20;99.90;;;;;;5118894;27;20839;-57
2024/03/25 04:19:00;;;;;;;1.50;0.60;;;5.20;99.90;;;;;;5117420;28;20420;-58
2024/03/25 04:21:27;;;;;;;1.30;0.50;;;5.20;99.90;;;;;;5117226;28;20428;-57
2024/03/25 04:23:54;;;;;;;0.80;0.45;;;5.20;99.90;;;;;;5116207;28;20428;-58
2024/03/25 04:26:22;;;;;;;0.90;0.50;;;5.30;99.90;;;;;;5118530;27;20412;-57
2024/03/25 04:28:48;;;;;;;1.33;0.50;;;5.30;99.90;;;;;;5117553;28;20427;-58
2024/03/25 04:31:15;;;;;;;1.00;0.50;;;5.30;99.90;;;;;;5118359;27;20419;-58
2024/03/25 04:33:41;;;;;;;1.30;0.60;;;5.30;99.90;;;;;;5117423;28;20424;-58
2024/03/25 04:36:08;;;;;;;1.02;0.47;;;5.40;99.90;;;;;;5117271;28;20420;-58
